sensor_id;sensor_type;location;lat;lon;timestamp;P1;durP1;ratioP1;P2;durP2;ratioP2
13799;SDS011;6971;50.028;9.258;2023-06-26T00:00:05;8.67;;;7.87;;
13799;SDS011;6971;50.028;9.258;2023-06-26T00:05:07;8.27;;;7.50;;
13799;SDS011;6971;50.028;9.258;2023-06-26T00:10:08;9.50;;;8.50;;
13799;SDS011;6971;50.028;9.258;2023-06-26T00:15:09;8.40;;;7.60;;
13799;SDS011;6971;50.028;9.258;2023-06-26T00:20:09;10.07;;;7.73;;
13799;SDS011;6971;50.028;9.258;2023-06-26T00:25:09;8.90;;;7.70;;
13799;SDS011;6971;50.028;9.258;2023-06-26T00:30:10;9.63;;;8.73;;
13799;SDS011;6971;50.028;9.258;2023-06-26T00:35:11;9.50;;;8.27;;
13799;SDS011;6971;50.028;9.258;2023-06-26T00:40:14;8.70;;;7.90;;
13799;SDS011;6971;50.028;9.258;2023-06-26T00:45:14;9.23;;;8.33;;
13799;SDS011;6971;50.028;9.258;2023-06-26T00:50:15;9.47;;;8.43;;
13799;SDS011;6971;50.028;9.258;2023-06-26T00:55:17;8.57;;;7.77;;
13799;SDS011;6971;50.028;9.258;2023-06-26T01:00:18;9.17;;;8.27;;
13799;SDS011;6971;50.028;9.258;2023-06-26T01:05:19;9.80;;;8.30;;
13799;SDS011;6971;50.028;9.258;2023-06-26T01:10:20;8.90;;;8.10;;
13799;SDS011;6971;50.028;9.258;2023-06-26T01:15:21;8.30;;;7.50;;
13799;SDS011;6971;50.028;9.258;2023-06-26T01:20:21;9.93;;;8.77;;
13799;SDS011;6971;50.028;9.258;2023-06-26T01:30:32;9.37;;;8.47;;
13799;SDS011;6971;50.028;9.258;2023-06-26T01:35:32;9.80;;;8.80;;
13799;SDS011;6971;50.028;9.258;2023-06-26T01:40:34;9.07;;;8.27;;
13799;SDS011;6971;50.028;9.258;2023-06-26T01:45:34;10.53;;;9.10;;
13799;SDS011;6971;50.028;9.258;2023-06-26T01:50:35;9.13;;;8.27;;
13799;SDS011;6971;50.028;9.258;2023-06-26T02:00:50;9.90;;;8.90;;
13799;SDS011;6971;50.028;9.258;2023-06-26T02:05:50;11.27;;;9.23;;
13799;SDS011;6971;50.028;9.258;2023-06-26T02:10:51;9.47;;;8.57;;
13799;SDS011;6971;50.028;9.258;2023-06-26T02:15:51;9.33;;;8.43;;
13799;SDS011;6971;50.028;9.258;2023-06-26T02:20:52;9.57;;;8.53;;
13799;SDS011;6971;50.028;9.258;2023-06-26T02:25:52;10.10;;;9.20;;
13799;SDS011;6971;50.028;9.258;2023-06-26T02:30:52;9.87;;;8.97;;
13799;SDS011;6971;50.028;9.258;2023-06-26T02:35:53;10.07;;;9.03;;
13799;SDS011;6971;50.028;9.258;2023-06-26T02:40:53;9.97;;;8.97;;
13799;SDS011;6971;50.028;9.258;2023-06-26T02:45:53;9.53;;;8.53;;
13799;SDS011;6971;50.028;9.258;2023-06-26T02:50:53;10.70;;;8.53;;
13799;SDS011;6971;50.028;9.258;2023-06-26T02:55:54;9.90;;;9.00;;
13799;SDS011;6971;50.028;9.258;2023-06-26T03:00:54;9.70;;;8.57;;
13799;SDS011;6971;50.028;9.258;2023-06-26T03:05:56;10.20;;;9.17;;
13799;SDS011;6971;50.028;9.258;2023-06-26T03:10:57;10.30;;;9.30;;
13799;SDS011;6971;50.028;9.258;2023-06-26T03:15:57;10.63;;;9.47;;
13799;SDS011;6971;50.028;9.258;2023-06-26T03:20:58;10.23;;;9.17;;
13799;SDS011;6971;50.028;9.258;2023-06-26T03:25:59;10.17;;;9.17;;
13799;SDS011;6971;50.028;9.258;2023-06-26T03:31:00;10.03;;;9.03;;
13799;SDS011;6971;50.028;9.258;2023-06-26T03:36:00;10.23;;;9.23;;
13799;SDS011;6971;50.028;9.258;2023-06-26T03:41:00;11.23;;;10.03;;
13799;SDS011;6971;50.028;9.258;2023-06-26T03:46:01;12.80;;;9.77;;
13799;SDS011;6971;50.028;9.258;2023-06-26T03:51:01;10.77;;;9.67;;
13799;SDS011;6971;50.028;9.258;2023-06-26T03:56:02;9.20;;;8.30;;
13799;SDS011;6971;50.028;9.258;2023-06-26T04:01:02;11.93;;;9.27;;
13799;SDS011;6971;50.028;9.258;2023-06-26T04:06:03;9.97;;;8.97;;
13799;SDS011;6971;50.028;9.258;2023-06-26T04:11:03;11.20;;;9.80;;
13799;SDS011;6971;50.028;9.258;2023-06-26T04:16:04;10.80;;;9.80;;
13799;SDS011;6971;50.028;9.258;2023-06-26T04:21:10;11.13;;;10.03;;
13799;SDS011;6971;50.028;9.258;2023-06-26T04:26:11;10.00;;;9.10;;
13799;SDS011;6971;50.028;9.258;2023-06-26T04:31:14;10.40;;;9.40;;
13799;SDS011;6971;50.028;9.258;2023-06-26T04:36:15;10.07;;;9.00;;
13799;SDS011;6971;50.028;9.258;2023-06-26T04:41:16;10.73;;;9.30;;
13799;SDS011;6971;50.028;9.258;2023-06-26T04:46:16;10.20;;;9.23;;
13799;SDS011;6971;50.028;9.258;2023-06-26T04:51:17;10.73;;;9.60;;
13799;SDS011;6971;50.028;9.258;2023-06-26T04:56:20;10.77;;;8.77;;
13799;SDS011;6971;50.028;9.258;2023-06-26T05:01:20;10.20;;;9.20;;
13799;SDS011;6971;50.028;9.258;2023-06-26T05:06:21;9.57;;;8.57;;
13799;SDS011;6971;50.028;9.258;2023-06-26T05:11:21;11.10;;;9.93;;
13799;SDS011;6971;50.028;9.258;2023-06-26T05:16:22;12.43;;;9.80;;
13799;SDS011;6971;50.028;9.258;2023-06-26T05:21:23;10.40;;;9.20;;
13799;SDS011;6971;50.028;9.258;2023-06-26T05:26:24;9.77;;;8.77;;
13799;SDS011;6971;50.028;9.258;2023-06-26T05:31:25;8.77;;;7.93;;
13799;SDS011;6971;50.028;9.258;2023-06-26T05:36:26;11.67;;;10.53;;
13799;SDS011;6971;50.028;9.258;2023-06-26T05:41:29;10.80;;;9.70;;
13799;SDS011;6971;50.028;9.258;2023-06-26T05:46:29;11.30;;;10.20;;
13799;SDS011;6971;50.028;9.258;2023-06-26T05:51:30;11.70;;;9.30;;
13799;SDS011;6971;50.028;9.258;2023-06-26T05:56:31;9.93;;;8.97;;
13799;SDS011;6971;50.028;9.258;2023-06-26T06:01:32;11.40;;;10.20;;
13799;SDS011;6971;50.028;9.258;2023-06-26T06:06:33;9.73;;;8.83;;
13799;SDS011;6971;50.028;9.258;2023-06-26T06:11:33;10.30;;;9.37;;
13799;SDS011;6971;50.028;9.258;2023-06-26T06:16:34;10.33;;;8.93;;
13799;SDS011;6971;50.028;9.258;2023-06-26T06:21:34;10.87;;;9.60;;
13799;SDS011;6971;50.028;9.258;2023-06-26T06:26:35;10.13;;;9.20;;
13799;SDS011;6971;50.028;9.258;2023-06-26T06:31:35;9.73;;;8.77;;
13799;SDS011;6971;50.028;9.258;2023-06-26T06:36:36;12.87;;;8.83;;
13799;SDS011;6971;50.028;9.258;2023-06-26T06:41:36;10.33;;;8.57;;
13799;SDS011;6971;50.028;9.258;2023-06-26T06:46:36;9.37;;;8.33;;
13799;SDS011;6971;50.028;9.258;2023-06-26T06:51:36;8.67;;;7.87;;
13799;SDS011;6971;50.028;9.258;2023-06-26T06:56:37;8.37;;;7.57;;
13799;SDS011;6971;50.028;9.258;2023-06-26T07:01:38;9.70;;;8.23;;
13799;SDS011;6971;50.028;9.258;2023-06-26T07:06:40;7.77;;;6.60;;
13799;SDS011;6971;50.028;9.258;2023-06-26T07:11:40;7.73;;;7.03;;
13799;SDS011;6971;50.028;9.258;2023-06-26T07:16:40;7.60;;;6.80;;
13799;SDS011;6971;50.028;9.258;2023-06-26T07:21:41;8.00;;;7.20;;
13799;SDS011;6971;50.028;9.258;2023-06-26T07:26:42;8.73;;;7.13;;
13799;SDS011;6971;50.028;9.258;2023-06-26T07:31:42;8.07;;;7.27;;
13799;SDS011;6971;50.028;9.258;2023-06-26T07:36:45;7.40;;;6.70;;
13799;SDS011;6971;50.028;9.258;2023-06-26T07:41:45;8.20;;;6.83;;
13799;SDS011;6971;50.028;9.258;2023-06-26T07:46:45;7.97;;;7.27;;
13799;SDS011;6971;50.028;9.258;2023-06-26T07:51:46;8.60;;;7.67;;
13799;SDS011;6971;50.028;9.258;2023-06-26T07:56:59;7.77;;;6.93;;
13799;SDS011;6971;50.028;9.258;2023-06-26T08:02:01;7.83;;;7.03;;
13799;SDS011;6971;50.028;9.258;2023-06-26T08:07:02;8.40;;;7.60;;
13799;SDS011;6971;50.028;9.258;2023-06-26T08:12:06;8.03;;;7.23;;
13799;SDS011;6971;50.028;9.258;2023-06-26T08:17:06;7.97;;;6.77;;
13799;SDS011;6971;50.028;9.258;2023-06-26T08:22:07;8.03;;;7.33;;
13799;SDS011;6971;50.028;9.258;2023-06-26T08:27:07;8.40;;;7.60;;
13799;SDS011;6971;50.028;9.258;2023-06-26T08:32:07;8.87;;;7.97;;
13799;SDS011;6971;50.028;9.258;2023-06-26T08:37:08;7.97;;;7.17;;
13799;SDS011;6971;50.028;9.258;2023-06-26T08:42:11;8.30;;;7.60;;
13799;SDS011;6971;50.028;9.258;2023-06-26T08:47:11;9.03;;;8.23;;
13799;SDS011;6971;50.028;9.258;2023-06-26T08:57:52;9.20;;;7.90;;
13799;SDS011;6971;50.028;9.258;2023-06-26T09:02:53;8.23;;;7.53;;
13799;SDS011;6971;50.028;9.258;2023-06-26T09:07:55;8.30;;;7.50;;
13799;SDS011;6971;50.028;9.258;2023-06-26T09:12:55;8.53;;;7.77;;
13799;SDS011;6971;50.028;9.258;2023-06-26T09:18:01;10.10;;;9.20;;
13799;SDS011;6971;50.028;9.258;2023-06-26T09:23:02;10.57;;;9.03;;
13799;SDS011;6971;50.028;9.258;2023-06-26T09:28:03;9.33;;;8.33;;
13799;SDS011;6971;50.028;9.258;2023-06-26T09:33:16;9.27;;;8.37;;
13799;SDS011;6971;50.028;9.258;2023-06-26T09:38:18;9.00;;;7.10;;
13799;SDS011;6971;50.028;9.258;2023-06-26T09:43:21;8.03;;;7.33;;
13799;SDS011;6971;50.028;9.258;2023-06-26T09:48:21;8.87;;;7.80;;
13799;SDS011;6971;50.028;9.258;2023-06-26T09:53:22;8.43;;;7.63;;
13799;SDS011;6971;50.028;9.258;2023-06-26T09:58:23;14.67;;;8.70;;
13799;SDS011;6971;50.028;9.258;2023-06-26T10:03:24;8.60;;;7.80;;
13799;SDS011;6971;50.028;9.258;2023-06-26T10:08:24;9.47;;;8.57;;
13799;SDS011;6971;50.028;9.258;2023-06-26T10:13:27;9.70;;;7.23;;
13799;SDS011;6971;50.028;9.258;2023-06-26T10:18:38;8.60;;;7.70;;
13799;SDS011;6971;50.028;9.258;2023-06-26T10:23:40;9.43;;;7.53;;
13799;SDS011;6971;50.028;9.258;2023-06-26T10:28:44;9.90;;;8.90;;
13799;SDS011;6971;50.028;9.258;2023-06-26T10:33:48;8.67;;;7.97;;
13799;SDS011;6971;50.028;9.258;2023-06-26T10:38:50;8.07;;;7.27;;
13799;SDS011;6971;50.028;9.258;2023-06-26T10:48:59;8.83;;;8.10;;
13799;SDS011;6971;50.028;9.258;2023-06-26T10:54:00;9.90;;;8.17;;
13799;SDS011;6971;50.028;9.258;2023-06-26T10:59:10;9.77;;;8.00;;
13799;SDS011;6971;50.028;9.258;2023-06-26T11:04:15;8.00;;;7.30;;
13799;SDS011;6971;50.028;9.258;2023-06-26T11:09:17;8.80;;;8.00;;
13799;SDS011;6971;50.028;9.258;2023-06-26T11:14:23;9.90;;;8.87;;
13799;SDS011;6971;50.028;9.258;2023-06-26T11:19:25;10.30;;;9.10;;
13799;SDS011;6971;50.028;9.258;2023-06-26T11:24:28;9.40;;;8.47;;
13799;SDS011;6971;50.028;9.258;2023-06-26T11:29:29;8.90;;;8.13;;
13799;SDS011;6971;50.028;9.258;2023-06-26T11:34:30;9.80;;;9.00;;
13799;SDS011;6971;50.028;9.258;2023-06-26T11:39:31;9.30;;;8.30;;
13799;SDS011;6971;50.028;9.258;2023-06-26T11:44:32;9.63;;;8.27;;
13799;SDS011;6971;50.028;9.258;2023-06-26T11:49:41;9.03;;;8.23;;
13799;SDS011;6971;50.028;9.258;2023-06-26T11:54:42;9.23;;;8.33;;
13799;SDS011;6971;50.028;9.258;2023-06-26T11:59:43;9.03;;;8.07;;
13799;SDS011;6971;50.028;9.258;2023-06-26T12:04:43;8.05;;;7.25;;
13799;SDS011;6971;50.028;9.258;2023-06-26T12:09:45;11.43;;;7.47;;
13799;SDS011;6971;50.028;9.258;2023-06-26T12:14:47;8.30;;;7.50;;
13799;SDS011;6971;50.028;9.258;2023-06-26T12:19:47;8.63;;;7.73;;
13799;SDS011;6971;50.028;9.258;2023-06-26T12:24:48;8.77;;;7.93;;
13799;SDS011;6971;50.028;9.258;2023-06-26T12:29:50;8.87;;;7.97;;
13799;SDS011;6971;50.028;9.258;2023-06-26T12:34:53;7.93;;;7.17;;
13799;SDS011;6971;50.028;9.258;2023-06-26T12:39:56;8.80;;;6.97;;
13799;SDS011;6971;50.028;9.258;2023-06-26T12:44:59;10.77;;;7.63;;
13799;SDS011;6971;50.028;9.258;2023-06-26T12:50:03;7.40;;;6.77;;
13799;SDS011;6971;50.028;9.258;2023-06-26T12:55:05;8.90;;;7.33;;
13799;SDS011;6971;50.028;9.258;2023-06-26T13:00:06;8.53;;;7.03;;
13799;SDS011;6971;50.028;9.258;2023-06-26T13:05:07;9.53;;;6.93;;
13799;SDS011;6971;50.028;9.258;2023-06-26T13:10:08;8.40;;;7.53;;
13799;SDS011;6971;50.028;9.258;2023-06-26T13:15:08;7.43;;;6.73;;
13799;SDS011;6971;50.028;9.258;2023-06-26T13:20:10;8.57;;;7.63;;
13799;SDS011;6971;50.028;9.258;2023-06-26T13:25:10;9.40;;;7.17;;
13799;SDS011;6971;50.028;9.258;2023-06-26T13:30:11;8.67;;;7.37;;
13799;SDS011;6971;50.028;9.258;2023-06-26T13:35:13;7.70;;;6.83;;
13799;SDS011;6971;50.028;9.258;2023-06-26T13:40:13;9.60;;;6.93;;
13799;SDS011;6971;50.028;9.258;2023-06-26T13:45:14;10.77;;;7.40;;
13799;SDS011;6971;50.028;9.258;2023-06-26T13:50:14;8.82;;;6.65;;
13799;SDS011;6971;50.028;9.258;2023-06-26T13:55:15;9.60;;;6.70;;
13799;SDS011;6971;50.028;9.258;2023-06-26T14:00:15;11.87;;;6.53;;
13799;SDS011;6971;50.028;9.258;2023-06-26T14:05:19;10.33;;;6.93;;
13799;SDS011;6971;50.028;9.258;2023-06-26T14:10:21;7.83;;;7.03;;
13799;SDS011;6971;50.028;9.258;2023-06-26T14:15:22;7.40;;;6.70;;
13799;SDS011;6971;50.028;9.258;2023-06-26T14:20:23;8.60;;;7.07;;
13799;SDS011;6971;50.028;9.258;2023-06-26T14:25:24;12.13;;;7.47;;
13799;SDS011;6971;50.028;9.258;2023-06-26T14:30:26;9.27;;;7.20;;
13799;SDS011;6971;50.028;9.258;2023-06-26T14:35:26;7.40;;;6.27;;
13799;SDS011;6971;50.028;9.258;2023-06-26T14:40:26;8.43;;;7.17;;
13799;SDS011;6971;50.028;9.258;2023-06-26T14:45:27;7.63;;;6.80;;
13799;SDS011;6971;50.028;9.258;2023-06-26T14:50:27;7.77;;;6.50;;
13799;SDS011;6971;50.028;9.258;2023-06-26T14:55:27;6.53;;;5.93;;
13799;SDS011;6971;50.028;9.258;2023-06-26T15:00:28;8.10;;;5.97;;
13799;SDS011;6971;50.028;9.258;2023-06-26T15:05:28;8.13;;;5.30;;
13799;SDS011;6971;50.028;9.258;2023-06-26T15:10:31;6.47;;;4.90;;
13799;SDS011;6971;50.028;9.258;2023-06-26T15:15:31;5.33;;;4.83;;
13799;SDS011;6971;50.028;9.258;2023-06-26T15:20:31;7.47;;;5.50;;
13799;SDS011;6971;50.028;9.258;2023-06-26T15:25:32;7.60;;;4.70;;
13799;SDS011;6971;50.028;9.258;2023-06-26T15:30:35;6.97;;;4.60;;
13799;SDS011;6971;50.028;9.258;2023-06-26T15:35:35;5.17;;;3.70;;
13799;SDS011;6971;50.028;9.258;2023-06-26T15:40:35;6.40;;;4.00;;
13799;SDS011;6971;50.028;9.258;2023-06-26T15:45:35;3.90;;;3.20;;
13799;SDS011;6971;50.028;9.258;2023-06-26T15:50:36;6.20;;;3.83;;
13799;SDS011;6971;50.028;9.258;2023-06-26T15:55:36;3.43;;;2.93;;
13799;SDS011;6971;50.028;9.258;2023-06-26T16:00:37;8.37;;;3.40;;
13799;SDS011;6971;50.028;9.258;2023-06-26T16:05:37;8.00;;;3.17;;
13799;SDS011;6971;50.028;9.258;2023-06-26T16:10:37;8.63;;;3.13;;
13799;SDS011;6971;50.028;9.258;2023-06-26T16:15:38;8.23;;;3.13;;
13799;SDS011;6971;50.028;9.258;2023-06-26T16:20:38;3.80;;;2.40;;
13799;SDS011;6971;50.028;9.258;2023-06-26T16:25:38;6.03;;;2.80;;
13799;SDS011;6971;50.028;9.258;2023-06-26T16:30:39;5.67;;;2.77;;
13799;SDS011;6971;50.028;9.258;2023-06-26T16:35:39;4.73;;;2.83;;
13799;SDS011;6971;50.028;9.258;2023-06-26T16:40:40;5.25;;;2.40;;
13799;SDS011;6971;50.028;9.258;2023-06-26T16:45:40;5.53;;;2.53;;
13799;SDS011;6971;50.028;9.258;2023-06-26T16:50:40;5.57;;;2.40;;
13799;SDS011;6971;50.028;9.258;2023-06-26T16:55:41;4.80;;;2.60;;
13799;SDS011;6971;50.028;9.258;2023-06-26T17:00:41;4.77;;;2.63;;
13799;SDS011;6971;50.028;9.258;2023-06-26T17:05:42;5.27;;;2.63;;
13799;SDS011;6971;50.028;9.258;2023-06-26T17:10:42;5.37;;;2.70;;
13799;SDS011;6971;50.028;9.258;2023-06-26T17:15:42;5.43;;;2.60;;
13799;SDS011;6971;50.028;9.258;2023-06-26T17:20:43;5.77;;;2.40;;
13799;SDS011;6971;50.028;9.258;2023-06-26T17:25:43;6.03;;;2.60;;
13799;SDS011;6971;50.028;9.258;2023-06-26T17:30:43;8.43;;;3.53;;
13799;SDS011;6971;50.028;9.258;2023-06-26T17:35:45;5.80;;;2.80;;
13799;SDS011;6971;50.028;9.258;2023-06-26T17:40:45;6.53;;;2.47;;
13799;SDS011;6971;50.028;9.258;2023-06-26T17:45:46;4.27;;;2.33;;
13799;SDS011;6971;50.028;9.258;2023-06-26T17:50:47;4.90;;;2.87;;
13799;SDS011;6971;50.028;9.258;2023-06-26T17:55:47;6.23;;;2.50;;
13799;SDS011;6971;50.028;9.258;2023-06-26T18:00:48;5.03;;;2.90;;
13799;SDS011;6971;50.028;9.258;2023-06-26T18:05:49;4.87;;;2.43;;
13799;SDS011;6971;50.028;9.258;2023-06-26T18:10:49;5.33;;;2.47;;
13799;SDS011;6971;50.028;9.258;2023-06-26T18:15:50;4.83;;;2.60;;
13799;SDS011;6971;50.028;9.258;2023-06-26T18:20:53;7.10;;;2.90;;
13799;SDS011;6971;50.028;9.258;2023-06-26T18:25:54;4.17;;;2.30;;
13799;SDS011;6971;50.028;9.258;2023-06-26T18:30:54;7.47;;;2.67;;
13799;SDS011;6971;50.028;9.258;2023-06-26T18:35:54;5.07;;;2.10;;
13799;SDS011;6971;50.028;9.258;2023-06-26T18:40:55;4.97;;;2.30;;
13799;SDS011;6971;50.028;9.258;2023-06-26T18:45:56;7.10;;;2.33;;
13799;SDS011;6971;50.028;9.258;2023-06-26T18:50:56;3.27;;;2.20;;
13799;SDS011;6971;50.028;9.258;2023-06-26T18:55:56;5.50;;;2.10;;
13799;SDS011;6971;50.028;9.258;2023-06-26T19:00:57;6.07;;;2.27;;
13799;SDS011;6971;50.028;9.258;2023-06-26T19:05:58;5.20;;;1.90;;
13799;SDS011;6971;50.028;9.258;2023-06-26T19:10:59;5.33;;;1.93;;
13799;SDS011;6971;50.028;9.258;2023-06-26T19:15:59;6.30;;;2.33;;
13799;SDS011;6971;50.028;9.258;2023-06-26T19:21:00;6.17;;;2.30;;
13799;SDS011;6971;50.028;9.258;2023-06-26T19:26:01;5.13;;;1.93;;
13799;SDS011;6971;50.028;9.258;2023-06-26T19:31:01;3.60;;;1.83;;
13799;SDS011;6971;50.028;9.258;2023-06-26T19:36:02;4.03;;;1.77;;
13799;SDS011;6971;50.028;9.258;2023-06-26T19:41:03;4.27;;;1.80;;
13799;SDS011;6971;50.028;9.258;2023-06-26T19:46:03;5.80;;;2.00;;
13799;SDS011;6971;50.028;9.258;2023-06-26T19:51:03;6.23;;;2.27;;
13799;SDS011;6971;50.028;9.258;2023-06-26T19:56:04;7.87;;;2.27;;
13799;SDS011;6971;50.028;9.258;2023-06-26T20:01:05;4.87;;;1.70;;
13799;SDS011;6971;50.028;9.258;2023-06-26T20:06:05;5.17;;;1.80;;
13799;SDS011;6971;50.028;9.258;2023-06-26T20:11:05;4.63;;;2.00;;
13799;SDS011;6971;50.028;9.258;2023-06-26T20:16:06;6.47;;;2.20;;
13799;SDS011;6971;50.028;9.258;2023-06-26T20:21:06;6.67;;;2.47;;
13799;SDS011;6971;50.028;9.258;2023-06-26T20:26:06;6.13;;;2.00;;
13799;SDS011;6971;50.028;9.258;2023-06-26T20:31:07;5.87;;;2.00;;
13799;SDS011;6971;50.028;9.258;2023-06-26T20:36:07;6.47;;;2.63;;
13799;SDS011;6971;50.028;9.258;2023-06-26T20:41:07;4.53;;;1.93;;
13799;SDS011;6971;50.028;9.258;2023-06-26T20:46:08;4.87;;;2.03;;
13799;SDS011;6971;50.028;9.258;2023-06-26T20:51:09;4.60;;;2.00;;
13799;SDS011;6971;50.028;9.258;2023-06-26T20:56:10;5.70;;;2.17;;
13799;SDS011;6971;50.028;9.258;2023-06-26T21:01:11;6.47;;;2.13;;
13799;SDS011;6971;50.028;9.258;2023-06-26T21:06:11;5.67;;;2.00;;
13799;SDS011;6971;50.028;9.258;2023-06-26T21:11:11;4.07;;;1.70;;
13799;SDS011;6971;50.028;9.258;2023-06-26T21:16:12;3.57;;;2.20;;
13799;SDS011;6971;50.028;9.258;2023-06-26T21:21:12;4.20;;;1.80;;
13799;SDS011;6971;50.028;9.258;2023-06-26T21:26:12;5.20;;;2.07;;
13799;SDS011;6971;50.028;9.258;2023-06-26T21:31:12;4.63;;;2.17;;
13799;SDS011;6971;50.028;9.258;2023-06-26T21:36:13;4.27;;;2.00;;
13799;SDS011;6971;50.028;9.258;2023-06-26T21:41:13;4.30;;;2.07;;
13799;SDS011;6971;50.028;9.258;2023-06-26T21:46:14;5.63;;;2.10;;
13799;SDS011;6971;50.028;9.258;2023-06-26T21:51:14;3.30;;;2.10;;
13799;SDS011;6971;50.028;9.258;2023-06-26T21:56:15;6.23;;;2.03;;
13799;SDS011;6971;50.028;9.258;2023-06-26T22:01:15;5.97;;;2.13;;
13799;SDS011;6971;50.028;9.258;2023-06-26T22:06:16;3.30;;;1.93;;
13799;SDS011;6971;50.028;9.258;2023-06-26T22:11:16;4.30;;;2.00;;
13799;SDS011;6971;50.028;9.258;2023-06-26T22:16:16;2.75;;;1.80;;
13799;SDS011;6971;50.028;9.258;2023-06-26T22:21:17;3.37;;;2.10;;
13799;SDS011;6971;50.028;9.258;2023-06-26T22:26:19;4.57;;;2.23;;
13799;SDS011;6971;50.028;9.258;2023-06-26T22:31:19;4.90;;;1.90;;
13799;SDS011;6971;50.028;9.258;2023-06-26T22:36:20;7.22;;;1.98;;
13799;SDS011;6971;50.028;9.258;2023-06-26T22:41:22;3.37;;;1.70;;
13799;SDS011;6971;50.028;9.258;2023-06-26T22:46:22;5.87;;;2.20;;
13799;SDS011;6971;50.028;9.258;2023-06-26T22:51:23;3.05;;;1.73;;
13799;SDS011;6971;50.028;9.258;2023-06-26T22:56:23;4.43;;;2.20;;
13799;SDS011;6971;50.028;9.258;2023-06-26T23:01:24;2.40;;;1.80;;
13799;SDS011;6971;50.028;9.258;2023-06-26T23:06:24;2.80;;;1.90;;
13799;SDS011;6971;50.028;9.258;2023-06-26T23:11:24;3.00;;;2.20;;
13799;SDS011;6971;50.028;9.258;2023-06-26T23:16:24;4.30;;;2.00;;
13799;SDS011;6971;50.028;9.258;2023-06-26T23:21:25;2.20;;;2.00;;
13799;SDS011;6971;50.028;9.258;2023-06-26T23:26:25;3.77;;;2.10;;
13799;SDS011;6971;50.028;9.258;2023-06-26T23:31:30;3.60;;;1.80;;
13799;SDS011;6971;50.028;9.258;2023-06-26T23:36:31;3.70;;;1.90;;
13799;SDS011;6971;50.028;9.258;2023-06-26T23:41:37;5.30;;;2.20;;
13799;SDS011;6971;50.028;9.258;2023-06-26T23:46:39;3.37;;;2.40;;
13799;SDS011;6971;50.028;9.258;2023-06-26T23:51:43;3.33;;;2.40;;
13799;SDS011;6971;50.028;9.258;2023-06-26T23:56:43;5.53;;;2.50;;
